Kvb Empire — PD5101 — position and weather

sailwx.info

Track history (hours):
 
Tides and Currents Weather Stations Pressure Air Temp Water Temp Dewpoint Dewpoint Depression Visibility Wind Speed Wind Dir Waves Ship Positions

Kvb Empire

Last reported at 2016-Apr-30 08:32 UTC. Time now 2016-Apr-30 20:38 UTC.
Position N 51°49' E 005°01'.

Length 183 m; draft 1 m.

Type: Ship. MMSI: 244670090.

Date/timePositionNaut miles runAvg speedWind from/ knotsBaromVisibWave heightAir tempDewpointWater temp
2016-Apr-30 08:32N 51°49' E 005°01'8 8.5
2016-Apr-30 07:33N 51°49' E 004°47'8 7.8
2016-Apr-30 06:33N 51°48' E 004°35'7 7.2
2016-Apr-30 05:33N 51°51' E 004°24'3 3.1
2016-Apr-30 04:33N 51°52' E 004°19'0 0.0
2016-Apr-30 03:33N 51°52' E 004°19'0 0.0
2016-Apr-30 02:33N 51°52' E 004°19'0 0.0
2016-Apr-30 01:33N 51°52' E 004°19'0 0.0
2016-Apr-30 00:33N 51°52' E 004°19'0 0.0
2016-Apr-29 23:33N 51°52' E 004°19'0 0.0
2016-Apr-29 22:33N 51°52' E 004°19'0 0.0
2016-Apr-29 21:33N 51°52' E 004°19'0 0.0
2016-Apr-29 20:33N 51°52' E 004°19'0 0.0
2016-Apr-29 19:33N 51°52' E 004°19'0 0.0
2016-Apr-29 18:33N 51°52' E 004°19'3 3.4
2016-Apr-29 17:33N 51°53' E 004°14'0 0.2
2016-Apr-29 16:33N 51°53' E 004°14'3 3.1
2016-Apr-29 15:33N 51°53' E 004°19'4 3.9
2016-Apr-29 14:29N 51°54' E 004°26'0 0.0
2016-Apr-29 13:23N 51°54' E 004°26'0 0.0
2016-Apr-29 12:32N 51°54' E 004°26'0 0.0
2016-Apr-29 11:32N 51°54' E 004°26'0 0.1
2016-Apr-29 08:33N 51°53' E 004°26'0 0.0
2016-Apr-29 06:33N 51°53' E 004°26'1 1.1
2016-Apr-29 05:33N 51°54' E 004°24'1 1.2
2016-Apr-29 04:28N 51°53' E 004°26'0 0.0
2016-Apr-29 03:33N 51°53' E 004°26'0 0.0
2016-Apr-29 02:33N 51°53' E 004°26'0 0.0
2016-Apr-29 01:22N 51°53' E 004°26'0 0.0
2016-Apr-28 21:30N 51°53' E 004°26'0 0.0
2016-Apr-28 20:33N 51°53' E 004°26'0 0.0
2016-Apr-28 19:33N 51°53' E 004°26'0 0.0
2016-Apr-28 18:33N 51°53' E 004°26'0 0.0
2016-Apr-28 17:33N 51°53' E 004°25'1 1.3
2016-Apr-28 16:33N 51°54' E 004°24'1 1.2
2016-Apr-28 15:22N 51°54' E 004°26'1 0.7
2016-Apr-28 14:33N 51°54' E 004°27'9 8.0
2016-Apr-28 13:29N 51°51' E 004°40'8 8.4
2016-Apr-28 12:33N 51°49' E 004°52'61 8.7
2016-Apr-28 05:33N 51°40' E 006°29'8 7.5
2016-Apr-28 04:29N 51°35' E 006°38'21 7.3
2016-Apr-28 01:33N 51°14' E 006°45'23 7.5
2016-Apr-27 22:30N 50°54' E 007°02'7 7.8
2016-Apr-27 21:33N 50°46' E 007°04'101 3.4
2016-Apr-26 16:17N 49°22' E 008°30'6 8.4
2016-Apr-26 15:33N 49°16' E 008°27'1111.0
2016-Apr-26 14:33N 49°06' E 008°22'5 5.3
2016-Apr-26 13:33N 49°01' E 008°19'0 0.0
2016-Apr-26 12:33N 49°01' E 008°19'1 0.9
2016-Apr-26 11:33N 49°01' E 008°18'2 2.0
2016-Apr-26 10:33N 49°03' E 008°18'0 0.0
2016-Apr-26 09:33N 49°03' E 008°18'0 0.0
2016-Apr-26 08:33N 49°03' E 008°18'1 1.1
2016-Apr-26 07:33N 49°04' E 008°19'4 3.9
2016-Apr-26 06:33N 49°08' E 008°22'4 3.9
2016-Apr-26 05:33N 49°11' E 008°23'4 4.0
2016-Apr-26 04:33N 49°15' E 008°25'4 4.1
2016-Apr-26 03:33N 49°18' E 008°29'3 3.1
2016-Apr-26 02:33N 49°21' E 008°29'5 4.6
2016-Apr-26 01:33N 49°26' E 008°31'93 2.9
2016-Apr-24 17:27N 50°43' E 007°09'4 4.7
2016-Apr-24 16:32N 50°46' E 007°04'4 4.5
2016-Apr-24 15:33N 50°50' E 006°60'4 3.8
2016-Apr-24 14:24N 50°53' E 007°03'4 4.1
2016-Apr-24 13:29N 50°56' E 006°58'4 4.1
2016-Apr-24 12:32N 50°60' E 006°58'8 3.8
2016-Apr-24 10:32N 51°07' E 006°53'3 3.4
2016-Apr-24 09:32N 51°09' E 006°50'3 3.2
2016-Apr-24 08:33N 51°11' E 006°45'2 2.4
2016-Apr-24 07:33N 51°13' E 006°45'4 3.8
2016-Apr-24 06:33N 51°16' E 006°42'4 4.0
2016-Apr-24 05:31N 51°21' E 006°41'4 3.5
2016-Apr-24 04:26N 51°24' E 006°44'5 5.0
2016-Apr-24 03:31N 51°28' E 006°43'3 3.2
2016-Apr-24 02:33N 51°31' E 006°43'4 4.1
2016-Apr-24 01:33N 51°34' E 006°39'4 3.9
2016-Apr-24 00:33N 51°38' E 006°36'4 3.8
2016-Apr-23 23:33N 51°40' E 006°30'6 4.5
2016-Apr-23 22:19N 51°44' E 006°25'4 5.1
2016-Apr-23 21:31N 51°46' E 006°20'14 5.6
2016-Apr-23 19:07N 51°53' E 006°00'36 5.4
2016-Apr-23 12:25N 51°49' E 005°02'6 6.9
2016-Apr-23 11:33N 51°49' E 004°52'7 7.3
2016-Apr-23 10:33N 51°49' E 004°40'7 6.8
2016-Apr-23 09:33N 51°54' E 004°33'5 1.5
2016-Apr-23 06:13N 51°53' E 004°25'1 1.4
2016-Apr-23 05:34N 51°54' E 004°25'1 0.7
2016-Apr-23 04:25N 51°54' E 004°26'1 1.3
2016-Apr-23 03:33N 51°53' E 004°25'0 0.0
2016-Apr-23 01:33N 51°53' E 004°25'0 0.0
2016-Apr-23 00:33N 51°53' E 004°25'0 0.0
2016-Apr-22 23:34N 51°53' E 004°25'0 0.0
2016-Apr-22 22:33N 51°53' E 004°25'0 0.0
2016-Apr-22 21:33N 51°53' E 004°25'1 0.9
2016-Apr-22 20:33N 51°54' E 004°26'0 0.0
2016-Apr-22 19:33N 51°54' E 004°26'0 0.4
2016-Apr-22 18:27N 51°54' E 004°26'6 6.3
2016-Apr-22 17:33N 51°52' E 004°18'2 2.1
2016-Apr-22 16:33N 51°53' E 004°14'0 0.1
2016-Apr-22 15:33N 51°53' E 004°15'0 0.2
2016-Apr-22 14:33N 51°53' E 004°15'0 0.4
2016-Apr-22 13:33N 51°53' E 004°14'3 3.2
2016-Apr-22 12:33N 51°52' E 004°19'0 0.0
2016-Apr-22 11:33N 51°52' E 004°19'0 0.0
2016-Apr-22 10:33N 51°52' E 004°19'0 0.0
2016-Apr-22 09:33N 51°52' E 004°19'0 0.0
2016-Apr-22 08:33N 51°52' E 004°19'0 0.0
2016-Apr-22 07:33N 51°52' E 004°19'0 0.0
2016-Apr-22 06:33N 51°52' E 004°19'0 0.0
2016-Apr-22 05:33N 51°52' E 004°19'0 0.0
2016-Apr-22 04:33N 51°52' E 004°19'0 0.0
2016-Apr-22 03:33N 51°52' E 004°19'0 0.0
2016-Apr-22 02:33N 51°52' E 004°19'0 0.0
2016-Apr-22 01:33N 51°52' E 004°19'0 0.0
2016-Apr-22 00:33N 51°52' E 004°19'0 0.0
2016-Apr-21 23:33N 51°52' E 004°19'0 0.0
2016-Apr-21 22:33N 51°52' E 004°19'0 0.0
2016-Apr-21 21:33N 51°52' E 004°19'0 0.0
2016-Apr-21 20:33N 51°52' E 004°19'0 0.0
2016-Apr-21 19:33N 51°52' E 004°19'0 0.0
2016-Apr-21 18:33N 51°52' E 004°19'0 0.0
2016-Apr-21 17:33N 51°52' E 004°19'0 0.0
2016-Apr-21 16:33N 51°52' E 004°19'0 0.0
2016-Apr-21 15:33N 51°52' E 004°19'0 0.0
2016-Apr-21 14:33N 51°52' E 004°19'0 0.0
2016-Apr-21 13:33N 51°52' E 004°19'0 0.0
2016-Apr-21 12:33N 51°52' E 004°19'0 0.0
2016-Apr-21 11:33N 51°52' E 004°19'0 0.0
2016-Apr-21 10:33N 51°52' E 004°19'0 0.0
2016-Apr-21 09:33N 51°52' E 004°19'0 0.0
2016-Apr-21 08:33N 51°52' E 004°19'0 0.0
2016-Apr-21 07:33N 51°52' E 004°19'0 0.0
2016-Apr-21 06:33N 51°52' E 004°19'0 0.0
2016-Apr-21 05:33N 51°52' E 004°19'0 0.0
2016-Apr-21 04:33N 51°52' E 004°19'0 0.0
2016-Apr-21 03:33N 51°52' E 004°19'0 0.0
2016-Apr-21 02:33N 51°52' E 004°19'0 0.0
2016-Apr-21 01:33N 51°52' E 004°19'0 0.0
2016-Apr-21 00:33N 51°52' E 004°19'0 0.0
2016-Apr-20 23:33N 51°52' E 004°19'0 0.0
2016-Apr-20 22:33N 51°52' E 004°19'0 0.0
2016-Apr-20 21:33N 51°52' E 004°19'6 6.0
2016-Apr-20 20:33N 51°50' E 004°29'11 8.7
2016-Apr-20 19:15N 51°49' E 004°47'7 9.5
2016-Apr-20 18:33N 51°50' E 004°58'48 7.5
2016-Apr-20 12:10N 51°50' E 006°15'13 7.7
2016-Apr-20 10:32N 51°40' E 006°29'5 4.9
2016-Apr-20 09:31N 51°38' E 006°35'6 6.4
2016-Apr-20 08:33N 51°32' E 006°41'  
Track history (hours):
 
Tides and Currents Weather Stations Pressure Air Temp Water Temp Dewpoint Dewpoint Depression Visibility Wind Speed Wind Dir Waves Ship Positions

Kvb Empire

Last reported at 2016-Apr-30 08:32 UTC. Time now 2016-Apr-30 20:38 UTC.
Position N 51°49' E 005°01'.

Length 183 m; draft 1 m.

Type: Ship. MMSI: 244670090.

Date/timePositionNaut miles runAvg speedWind from/ knotsBaromVisibWave heightAir tempDewpointWater temp
2016-Apr-30 08:32N 51°49' E 005°01'8 8.5
2016-Apr-30 07:33N 51°49' E 004°47'8 7.8
2016-Apr-30 06:33N 51°48' E 004°35'7 7.2
2016-Apr-30 05:33N 51°51' E 004°24'3 3.1
2016-Apr-30 04:33N 51°52' E 004°19'0 0.0
2016-Apr-30 03:33N 51°52' E 004°19'0 0.0
2016-Apr-30 02:33N 51°52' E 004°19'0 0.0
2016-Apr-30 01:33N 51°52' E 004°19'0 0.0
2016-Apr-30 00:33N 51°52' E 004°19'0 0.0
2016-Apr-29 23:33N 51°52' E 004°19'0 0.0
2016-Apr-29 22:33N 51°52' E 004°19'0 0.0
2016-Apr-29 21:33N 51°52' E 004°19'0 0.0
2016-Apr-29 20:33N 51°52' E 004°19'0 0.0
2016-Apr-29 19:33N 51°52' E 004°19'0 0.0
2016-Apr-29 18:33N 51°52' E 004°19'3 3.4
2016-Apr-29 17:33N 51°53' E 004°14'0 0.2
2016-Apr-29 16:33N 51°53' E 004°14'3 3.1
2016-Apr-29 15:33N 51°53' E 004°19'4 3.9
2016-Apr-29 14:29N 51°54' E 004°26'0 0.0
2016-Apr-29 13:23N 51°54' E 004°26'0 0.0
2016-Apr-29 12:32N 51°54' E 004°26'0 0.0
2016-Apr-29 11:32N 51°54' E 004°26'0 0.1
2016-Apr-29 08:33N 51°53' E 004°26'0 0.0
2016-Apr-29 06:33N 51°53' E 004°26'1 1.1
2016-Apr-29 05:33N 51°54' E 004°24'1 1.2
2016-Apr-29 04:28N 51°53' E 004°26'0 0.0
2016-Apr-29 03:33N 51°53' E 004°26'0 0.0
2016-Apr-29 02:33N 51°53' E 004°26'0 0.0
2016-Apr-29 01:22N 51°53' E 004°26'0 0.0
2016-Apr-28 21:30N 51°53' E 004°26'0 0.0
2016-Apr-28 20:33N 51°53' E 004°26'0 0.0
2016-Apr-28 19:33N 51°53' E 004°26'0 0.0
2016-Apr-28 18:33N 51°53' E 004°26'0 0.0
2016-Apr-28 17:33N 51°53' E 004°25'1 1.3
2016-Apr-28 16:33N 51°54' E 004°24'1 1.2
2016-Apr-28 15:22N 51°54' E 004°26'1 0.7
2016-Apr-28 14:33N 51°54' E 004°27'9 8.0
2016-Apr-28 13:29N 51°51' E 004°40'8 8.4
2016-Apr-28 12:33N 51°49' E 004°52'61 8.7
2016-Apr-28 05:33N 51°40' E 006°29'8 7.5
2016-Apr-28 04:29N 51°35' E 006°38'21 7.3
2016-Apr-28 01:33N 51°14' E 006°45'23 7.5
2016-Apr-27 22:30N 50°54' E 007°02'7 7.8
2016-Apr-27 21:33N 50°46' E 007°04'101 3.4
2016-Apr-26 16:17N 49°22' E 008°30'6 8.4
2016-Apr-26 15:33N 49°16' E 008°27'1111.0
2016-Apr-26 14:33N 49°06' E 008°22'5 5.3
2016-Apr-26 13:33N 49°01' E 008°19'0 0.0
2016-Apr-26 12:33N 49°01' E 008°19'1 0.9
2016-Apr-26 11:33N 49°01' E 008°18'2 2.0
2016-Apr-26 10:33N 49°03' E 008°18'0 0.0
2016-Apr-26 09:33N 49°03' E 008°18'0 0.0
2016-Apr-26 08:33N 49°03' E 008°18'1 1.1
2016-Apr-26 07:33N 49°04' E 008°19'4 3.9
2016-Apr-26 06:33N 49°08' E 008°22'4 3.9
2016-Apr-26 05:33N 49°11' E 008°23'4 4.0
2016-Apr-26 04:33N 49°15' E 008°25'4 4.1
2016-Apr-26 03:33N 49°18' E 008°29'3 3.1
2016-Apr-26 02:33N 49°21' E 008°29'5 4.6
2016-Apr-26 01:33N 49°26' E 008°31'93 2.9
2016-Apr-24 17:27N 50°43' E 007°09'4 4.7
2016-Apr-24 16:32N 50°46' E 007°04'4 4.5
2016-Apr-24 15:33N 50°50' E 006°60'4 3.8
2016-Apr-24 14:24N 50°53' E 007°03'4 4.1
2016-Apr-24 13:29N 50°56' E 006°58'4 4.1
2016-Apr-24 12:32N 50°60' E 006°58'8 3.8
2016-Apr-24 10:32N 51°07' E 006°53'3 3.4
2016-Apr-24 09:32N 51°09' E 006°50'3 3.2
2016-Apr-24 08:33N 51°11' E 006°45'2 2.4
2016-Apr-24 07:33N 51°13' E 006°45'4 3.8
2016-Apr-24 06:33N 51°16' E 006°42'4 4.0
2016-Apr-24 05:31N 51°21' E 006°41'4 3.5
2016-Apr-24 04:26N 51°24' E 006°44'5 5.0
2016-Apr-24 03:31N 51°28' E 006°43'3 3.2
2016-Apr-24 02:33N 51°31' E 006°43'4 4.1
2016-Apr-24 01:33N 51°34' E 006°39'4 3.9
2016-Apr-24 00:33N 51°38' E 006°36'4 3.8
2016-Apr-23 23:33N 51°40' E 006°30'6 4.5
2016-Apr-23 22:19N 51°44' E 006°25'4 5.1
2016-Apr-23 21:31N 51°46' E 006°20'14 5.6
2016-Apr-23 19:07N 51°53' E 006°00'36 5.4
2016-Apr-23 12:25N 51°49' E 005°02'6 6.9
2016-Apr-23 11:33N 51°49' E 004°52'7 7.3
2016-Apr-23 10:33N 51°49' E 004°40'7 6.8
2016-Apr-23 09:33N 51°54' E 004°33'5 1.5
2016-Apr-23 06:13N 51°53' E 004°25'1 1.4
2016-Apr-23 05:34N 51°54' E 004°25'1 0.7
2016-Apr-23 04:25N 51°54' E 004°26'1 1.3
2016-Apr-23 03:33N 51°53' E 004°25'0 0.0
2016-Apr-23 01:33N 51°53' E 004°25'0 0.0
2016-Apr-23 00:33N 51°53' E 004°25'0 0.0
2016-Apr-22 23:34N 51°53' E 004°25'0 0.0
2016-Apr-22 22:33N 51°53' E 004°25'0 0.0
2016-Apr-22 21:33N 51°53' E 004°25'1 0.9
2016-Apr-22 20:33N 51°54' E 004°26'0 0.0
2016-Apr-22 19:33N 51°54' E 004°26'0 0.4
2016-Apr-22 18:27N 51°54' E 004°26'6 6.3
2016-Apr-22 17:33N 51°52' E 004°18'2 2.1
2016-Apr-22 16:33N 51°53' E 004°14'0 0.1
2016-Apr-22 15:33N 51°53' E 004°15'0 0.2
2016-Apr-22 14:33N 51°53' E 004°15'0 0.4
2016-Apr-22 13:33N 51°53' E 004°14'3 3.2
2016-Apr-22 12:33N 51°52' E 004°19'0 0.0
2016-Apr-22 11:33N 51°52' E 004°19'0 0.0
2016-Apr-22 10:33N 51°52' E 004°19'0 0.0
2016-Apr-22 09:33N 51°52' E 004°19'0 0.0
2016-Apr-22 08:33N 51°52' E 004°19'0 0.0
2016-Apr-22 07:33N 51°52' E 004°19'0 0.0
2016-Apr-22 06:33N 51°52' E 004°19'0 0.0
2016-Apr-22 05:33N 51°52' E 004°19'0 0.0
2016-Apr-22 04:33N 51°52' E 004°19'0 0.0
2016-Apr-22 03:33N 51°52' E 004°19'0 0.0
2016-Apr-22 02:33N 51°52' E 004°19'0 0.0
2016-Apr-22 01:33N 51°52' E 004°19'0 0.0
2016-Apr-22 00:33N 51°52' E 004°19'0 0.0
2016-Apr-21 23:33N 51°52' E 004°19'0 0.0
2016-Apr-21 22:33N 51°52' E 004°19'0 0.0
2016-Apr-21 21:33N 51°52' E 004°19'0 0.0
2016-Apr-21 20:33N 51°52' E 004°19'0 0.0
2016-Apr-21 19:33N 51°52' E 004°19'0 0.0
2016-Apr-21 18:33N 51°52' E 004°19'0 0.0
2016-Apr-21 17:33N 51°52' E 004°19'0 0.0
2016-Apr-21 16:33N 51°52' E 004°19'0 0.0
2016-Apr-21 15:33N 51°52' E 004°19'0 0.0
2016-Apr-21 14:33N 51°52' E 004°19'0 0.0
2016-Apr-21 13:33N 51°52' E 004°19'0 0.0
2016-Apr-21 12:33N 51°52' E 004°19'0 0.0
2016-Apr-21 11:33N 51°52' E 004°19'0 0.0
2016-Apr-21 10:33N 51°52' E 004°19'0 0.0
2016-Apr-21 09:33N 51°52' E 004°19'0 0.0
2016-Apr-21 08:33N 51°52' E 004°19'0 0.0
2016-Apr-21 07:33N 51°52' E 004°19'0 0.0
2016-Apr-21 06:33N 51°52' E 004°19'0 0.0
2016-Apr-21 05:33N 51°52' E 004°19'0 0.0
2016-Apr-21 04:33N 51°52' E 004°19'0 0.0
2016-Apr-21 03:33N 51°52' E 004°19'0 0.0
2016-Apr-21 02:33N 51°52' E 004°19'0 0.0
2016-Apr-21 01:33N 51°52' E 004°19'0 0.0
2016-Apr-21 00:33N 51°52' E 004°19'0 0.0
2016-Apr-20 23:33N 51°52' E 004°19'0 0.0
2016-Apr-20 22:33N 51°52' E 004°19'0 0.0
2016-Apr-20 21:33N 51°52' E 004°19'6 6.0
2016-Apr-20 20:33N 51°50' E 004°29'11 8.7
2016-Apr-20 19:15N 51°49' E 004°47'7 9.5
2016-Apr-20 18:33N 51°50' E 004°58'48 7.5
2016-Apr-20 12:10N 51°50' E 006°15'13 7.7
2016-Apr-20 10:32N 51°40' E 006°29'5 4.9
2016-Apr-20 09:31N 51°38' E 006°35'6 6.4
2016-Apr-20 08:33N 51°32' E 006°41'  

Dump ship's entire track history